sensor_id;sensor_type;location;lat;lon;timestamp;temperature;humidity
65044;DHT22;51617;48.158;16.464;2023-05-29T00:01:29;18.20;74.10
65044;DHT22;51617;48.158;16.464;2023-05-29T00:03:57;18.00;74.50
65044;DHT22;51617;48.158;16.464;2023-05-29T00:06:24;17.80;75.10
65044;DHT22;51617;48.158;16.464;2023-05-29T00:08:49;17.60;74.70
65044;DHT22;51617;48.158;16.464;2023-05-29T00:11:15;17.50;74.30
65044;DHT22;51617;48.158;16.464;2023-05-29T00:13:41;17.50;74.70
65044;DHT22;51617;48.158;16.464;2023-05-29T00:16:07;17.60;74.20
65044;DHT22;51617;48.158;16.464;2023-05-29T00:18:34;17.70;74.50
65044;DHT22;51617;48.158;16.464;2023-05-29T00:21:00;17.70;73.70
65044;DHT22;51617;48.158;16.464;2023-05-29T00:23:27;17.70;74.00
65044;DHT22;51617;48.158;16.464;2023-05-29T00:25:52;17.70;73.80
65044;DHT22;51617;48.158;16.464;2023-05-29T00:28:18;17.70;73.80
65044;DHT22;51617;48.158;16.464;2023-05-29T00:30:44;17.70;73.90
65044;DHT22;51617;48.158;16.464;2023-05-29T00:33:10;17.70;74.00
65044;DHT22;51617;48.158;16.464;2023-05-29T00:35:35;17.60;74.10
65044;DHT22;51617;48.158;16.464;2023-05-29T00:38:01;17.60;74.10
65044;DHT22;51617;48.158;16.464;2023-05-29T00:40:27;17.50;74.10
65044;DHT22;51617;48.158;16.464;2023-05-29T00:42:52;17.50;74.30
65044;DHT22;51617;48.158;16.464;2023-05-29T00:45:18;17.50;74.40
65044;DHT22;51617;48.158;16.464;2023-05-29T00:47:44;17.40;74.20
65044;DHT22;51617;48.158;16.464;2023-05-29T00:50:11;17.50;74.20
65044;DHT22;51617;48.158;16.464;2023-05-29T00:52:39;17.50;74.20
65044;DHT22;51617;48.158;16.464;2023-05-29T00:55:06;17.40;74.10
65044;DHT22;51617;48.158;16.464;2023-05-29T00:57:33;17.40;74.10
65044;DHT22;51617;48.158;16.464;2023-05-29T01:00:00;17.40;74.00
65044;DHT22;51617;48.158;16.464;2023-05-29T01:02:29;17.40;74.10
65044;DHT22;51617;48.158;16.464;2023-05-29T01:04:56;17.30;74.00
65044;DHT22;51617;48.158;16.464;2023-05-29T01:07:22;17.30;74.10
65044;DHT22;51617;48.158;16.464;2023-05-29T01:09:48;17.30;74.00
65044;DHT22;51617;48.158;16.464;2023-05-29T01:12:36;17.40;74.00
65044;DHT22;51617;48.158;16.464;2023-05-29T01:15:18;17.40;73.70
65044;DHT22;51617;48.158;16.464;2023-05-29T01:18:22;17.50;73.90
65044;DHT22;51617;48.158;16.464;2023-05-29T01:21:06;17.40;75.00
65044;DHT22;51617;48.158;16.464;2023-05-29T01:23:53;17.20;76.00
65044;DHT22;51617;48.158;16.464;2023-05-29T01:26:48;16.90;76.90
65044;DHT22;51617;48.158;16.464;2023-05-29T01:29:22;16.70;77.30
65044;DHT22;51617;48.158;16.464;2023-05-29T01:31:48;16.60;77.40
65044;DHT22;51617;48.158;16.464;2023-05-29T01:34:15;16.50;77.90
65044;DHT22;51617;48.158;16.464;2023-05-29T01:36:40;16.40;78.40
65044;DHT22;51617;48.158;16.464;2023-05-29T01:39:07;16.20;78.70
65044;DHT22;51617;48.158;16.464;2023-05-29T01:41:33;16.10;79.40
65044;DHT22;51617;48.158;16.464;2023-05-29T01:44:03;15.90;80.30
65044;DHT22;51617;48.158;16.464;2023-05-29T01:46:29;15.80;80.70
65044;DHT22;51617;48.158;16.464;2023-05-29T01:48:55;15.80;80.20
65044;DHT22;51617;48.158;16.464;2023-05-29T01:51:21;15.90;80.60
65044;DHT22;51617;48.158;16.464;2023-05-29T01:53:46;15.80;80.90
65044;DHT22;51617;48.158;16.464;2023-05-29T01:56:12;15.80;81.30
65044;DHT22;51617;48.158;16.464;2023-05-29T01:58:39;15.80;81.70
65044;DHT22;51617;48.158;16.464;2023-05-29T02:01:06;15.80;82.00
65044;DHT22;51617;48.158;16.464;2023-05-29T02:03:32;15.60;82.70
65044;DHT22;51617;48.158;16.464;2023-05-29T02:05:59;15.40;83.60
65044;DHT22;51617;48.158;16.464;2023-05-29T02:08:26;15.40;83.90
65044;DHT22;51617;48.158;16.464;2023-05-29T02:10:51;15.50;83.90
65044;DHT22;51617;48.158;16.464;2023-05-29T02:13:17;15.50;83.90
65044;DHT22;51617;48.158;16.464;2023-05-29T02:15:43;15.70;83.90
65044;DHT22;51617;48.158;16.464;2023-05-29T02:18:14;15.70;83.90
65044;DHT22;51617;48.158;16.464;2023-05-29T02:20:40;15.80;84.00
65044;DHT22;51617;48.158;16.464;2023-05-29T02:23:08;15.90;83.90
65044;DHT22;51617;48.158;16.464;2023-05-29T02:25:34;15.90;83.80
65044;DHT22;51617;48.158;16.464;2023-05-29T02:27:59;16.00;83.90
65044;DHT22;51617;48.158;16.464;2023-05-29T02:30:25;16.00;83.90
65044;DHT22;51617;48.158;16.464;2023-05-29T02:32:51;16.00;83.80
65044;DHT22;51617;48.158;16.464;2023-05-29T02:35:17;16.00;83.70
65044;DHT22;51617;48.158;16.464;2023-05-29T02:37:46;16.00;83.70
65044;DHT22;51617;48.158;16.464;2023-05-29T02:40:11;16.00;83.80
65044;DHT22;51617;48.158;16.464;2023-05-29T02:42:37;16.00;83.80
65044;DHT22;51617;48.158;16.464;2023-05-29T02:45:03;15.90;83.70
65044;DHT22;51617;48.158;16.464;2023-05-29T02:47:29;16.00;83.60
65044;DHT22;51617;48.158;16.464;2023-05-29T02:49:55;16.00;83.60
65044;DHT22;51617;48.158;16.464;2023-05-29T02:52:21;16.00;83.70
65044;DHT22;51617;48.158;16.464;2023-05-29T02:54:48;15.90;83.70
65044;DHT22;51617;48.158;16.464;2023-05-29T02:57:14;15.90;83.90
65044;DHT22;51617;48.158;16.464;2023-05-29T02:59:41;15.80;83.90
65044;DHT22;51617;48.158;16.464;2023-05-29T03:02:06;15.80;83.80
65044;DHT22;51617;48.158;16.464;2023-05-29T03:04:32;15.80;83.80
65044;DHT22;51617;48.158;16.464;2023-05-29T03:06:58;15.80;83.90
65044;DHT22;51617;48.158;16.464;2023-05-29T03:09:23;15.80;84.10
65044;DHT22;51617;48.158;16.464;2023-05-29T03:11:49;15.80;84.50
65044;DHT22;51617;48.158;16.464;2023-05-29T03:14:16;15.60;84.60
65044;DHT22;51617;48.158;16.464;2023-05-29T03:16:43;15.30;84.60
65044;DHT22;51617;48.158;16.464;2023-05-29T03:19:09;15.10;85.60
65044;DHT22;51617;48.158;16.464;2023-05-29T03:21:35;14.90;86.10
65044;DHT22;51617;48.158;16.464;2023-05-29T03:24:01;14.70;87.10
65044;DHT22;51617;48.158;16.464;2023-05-29T03:26:28;14.60;87.90
65044;DHT22;51617;48.158;16.464;2023-05-29T03:28:54;14.50;88.50
65044;DHT22;51617;48.158;16.464;2023-05-29T03:31:20;14.50;88.80
65044;DHT22;51617;48.158;16.464;2023-05-29T03:33:47;14.50;89.10
65044;DHT22;51617;48.158;16.464;2023-05-29T03:36:12;14.50;89.30
65044;DHT22;51617;48.158;16.464;2023-05-29T03:38:38;14.20;89.50
65044;DHT22;51617;48.158;16.464;2023-05-29T03:41:04;14.10;90.20
65044;DHT22;51617;48.158;16.464;2023-05-29T03:43:29;14.10;90.60
65044;DHT22;51617;48.158;16.464;2023-05-29T03:45:55;14.20;90.70
65044;DHT22;51617;48.158;16.464;2023-05-29T03:48:21;14.20;90.90
65044;DHT22;51617;48.158;16.464;2023-05-29T03:50:47;14.20;90.70
65044;DHT22;51617;48.158;16.464;2023-05-29T03:53:12;14.20;90.60
65044;DHT22;51617;48.158;16.464;2023-05-29T03:55:38;14.20;90.60
65044;DHT22;51617;48.158;16.464;2023-05-29T03:58:04;14.30;90.60
65044;DHT22;51617;48.158;16.464;2023-05-29T04:00:29;14.60;90.40
65044;DHT22;51617;48.158;16.464;2023-05-29T04:02:56;14.80;90.10
65044;DHT22;51617;48.158;16.464;2023-05-29T04:05:22;15.00;89.50
65044;DHT22;51617;48.158;16.464;2023-05-29T04:07:47;15.10;88.90
65044;DHT22;51617;48.158;16.464;2023-05-29T04:10:13;15.30;88.30
65044;DHT22;51617;48.158;16.464;2023-05-29T04:12:39;15.40;87.90
65044;DHT22;51617;48.158;16.464;2023-05-29T04:15:05;15.60;87.50
65044;DHT22;51617;48.158;16.464;2023-05-29T04:17:31;15.70;87.10
65044;DHT22;51617;48.158;16.464;2023-05-29T04:19:57;15.70;86.80
65044;DHT22;51617;48.158;16.464;2023-05-29T04:22:22;15.90;86.70
65044;DHT22;51617;48.158;16.464;2023-05-29T04:24:48;15.90;86.30
65044;DHT22;51617;48.158;16.464;2023-05-29T04:27:13;15.90;86.40
65044;DHT22;51617;48.158;16.464;2023-05-29T04:29:42;16.00;86.20
65044;DHT22;51617;48.158;16.464;2023-05-29T04:32:08;16.10;85.80
65044;DHT22;51617;48.158;16.464;2023-05-29T04:34:37;16.20;85.60
65044;DHT22;51617;48.158;16.464;2023-05-29T04:37:04;16.30;85.60
65044;DHT22;51617;48.158;16.464;2023-05-29T04:39:30;16.40;85.50
65044;DHT22;51617;48.158;16.464;2023-05-29T04:41:56;16.40;85.30
65044;DHT22;51617;48.158;16.464;2023-05-29T04:44:24;16.50;85.40
65044;DHT22;51617;48.158;16.464;2023-05-29T04:46:52;16.60;85.20
65044;DHT22;51617;48.158;16.464;2023-05-29T04:49:18;16.60;85.20
65044;DHT22;51617;48.158;16.464;2023-05-29T04:51:44;16.70;85.00
65044;DHT22;51617;48.158;16.464;2023-05-29T04:54:11;16.70;84.70
65044;DHT22;51617;48.158;16.464;2023-05-29T04:56:37;16.90;84.60
65044;DHT22;51617;48.158;16.464;2023-05-29T04:59:05;17.00;84.20
65044;DHT22;51617;48.158;16.464;2023-05-29T05:01:32;17.00;84.00
65044;DHT22;51617;48.158;16.464;2023-05-29T05:03:59;17.10;84.70
65044;DHT22;51617;48.158;16.464;2023-05-29T05:06:25;17.20;83.70
65044;DHT22;51617;48.158;16.464;2023-05-29T05:08:51;17.40;83.00
65044;DHT22;51617;48.158;16.464;2023-05-29T05:11:21;17.50;82.80
65044;DHT22;51617;48.158;16.464;2023-05-29T05:13:47;17.60;82.60
65044;DHT22;51617;48.158;16.464;2023-05-29T05:16:13;17.70;82.40
65044;DHT22;51617;48.158;16.464;2023-05-29T05:18:39;17.70;83.10
65044;DHT22;51617;48.158;16.464;2023-05-29T05:21:04;17.80;82.50
65044;DHT22;51617;48.158;16.464;2023-05-29T05:23:31;18.00;82.00
65044;DHT22;51617;48.158;16.464;2023-05-29T05:25:57;18.00;81.60
65044;DHT22;51617;48.158;16.464;2023-05-29T05:28:23;18.10;81.00
65044;DHT22;51617;48.158;16.464;2023-05-29T05:30:48;18.20;80.70
65044;DHT22;51617;48.158;16.464;2023-05-29T05:33:14;18.30;80.40
65044;DHT22;51617;48.158;16.464;2023-05-29T05:35:40;18.40;80.10
65044;DHT22;51617;48.158;16.464;2023-05-29T05:38:06;18.40;79.60
65044;DHT22;51617;48.158;16.464;2023-05-29T05:40:32;18.50;79.10
65044;DHT22;51617;48.158;16.464;2023-05-29T05:42:57;18.60;78.50
65044;DHT22;51617;48.158;16.464;2023-05-29T05:45:23;18.60;76.90
65044;DHT22;51617;48.158;16.464;2023-05-29T05:47:49;18.70;77.00
65044;DHT22;51617;48.158;16.464;2023-05-29T05:50:14;18.70;75.90
65044;DHT22;51617;48.158;16.464;2023-05-29T05:52:40;18.70;75.90
65044;DHT22;51617;48.158;16.464;2023-05-29T05:55:06;18.80;75.30
65044;DHT22;51617;48.158;16.464;2023-05-29T05:57:33;18.90;75.80
65044;DHT22;51617;48.158;16.464;2023-05-29T05:59:59;18.90;74.90
65044;DHT22;51617;48.158;16.464;2023-05-29T06:02:25;19.00;74.40
65044;DHT22;51617;48.158;16.464;2023-05-29T06:04:51;19.00;73.50
65044;DHT22;51617;48.158;16.464;2023-05-29T06:07:17;19.00;73.60
65044;DHT22;51617;48.158;16.464;2023-05-29T06:09:43;19.10;73.10
65044;DHT22;51617;48.158;16.464;2023-05-29T06:12:09;19.20;72.10
65044;DHT22;51617;48.158;16.464;2023-05-29T06:14:35;19.20;71.70
65044;DHT22;51617;48.158;16.464;2023-05-29T06:17:01;19.20;71.70
65044;DHT22;51617;48.158;16.464;2023-05-29T06:19:26;19.20;72.70
65044;DHT22;51617;48.158;16.464;2023-05-29T06:21:52;19.20;72.10
65044;DHT22;51617;48.158;16.464;2023-05-29T06:24:18;19.30;71.90
65044;DHT22;51617;48.158;16.464;2023-05-29T06:26:44;19.30;71.50
65044;DHT22;51617;48.158;16.464;2023-05-29T06:29:09;19.30;72.20
65044;DHT22;51617;48.158;16.464;2023-05-29T06:31:35;19.40;71.60
65044;DHT22;51617;48.158;16.464;2023-05-29T06:34:01;19.40;71.00
65044;DHT22;51617;48.158;16.464;2023-05-29T06:36:26;19.40;71.00
65044;DHT22;51617;48.158;16.464;2023-05-29T06:38:52;19.40;70.70
65044;DHT22;51617;48.158;16.464;2023-05-29T06:41:18;19.40;70.50
65044;DHT22;51617;48.158;16.464;2023-05-29T06:43:43;19.40;70.20
65044;DHT22;51617;48.158;16.464;2023-05-29T06:46:10;19.50;71.00
65044;DHT22;51617;48.158;16.464;2023-05-29T06:48:36;19.60;70.20
65044;DHT22;51617;48.158;16.464;2023-05-29T06:51:02;19.70;69.70
65044;DHT22;51617;48.158;16.464;2023-05-29T06:53:37;19.80;69.40
65044;DHT22;51617;48.158;16.464;2023-05-29T06:56:04;19.90;69.20
65044;DHT22;51617;48.158;16.464;2023-05-29T06:58:31;19.90;69.40
65044;DHT22;51617;48.158;16.464;2023-05-29T07:00:57;20.00;69.40
65044;DHT22;51617;48.158;16.464;2023-05-29T07:03:27;20.20;69.50
65044;DHT22;51617;48.158;16.464;2023-05-29T07:05:52;20.20;68.60
65044;DHT22;51617;48.158;16.464;2023-05-29T07:08:19;20.30;68.90
65044;DHT22;51617;48.158;16.464;2023-05-29T07:10:44;20.30;68.30
65044;DHT22;51617;48.158;16.464;2023-05-29T07:13:17;20.30;68.10
65044;DHT22;51617;48.158;16.464;2023-05-29T07:15:43;20.40;68.50
65044;DHT22;51617;48.158;16.464;2023-05-29T07:18:09;20.40;69.00
65044;DHT22;51617;48.158;16.464;2023-05-29T07:20:36;20.60;68.50
65044;DHT22;51617;48.158;16.464;2023-05-29T07:23:01;20.60;68.30
65044;DHT22;51617;48.158;16.464;2023-05-29T07:25:27;20.70;67.20
65044;DHT22;51617;48.158;16.464;2023-05-29T07:27:53;20.70;66.50
65044;DHT22;51617;48.158;16.464;2023-05-29T07:30:19;20.80;67.00
65044;DHT22;51617;48.158;16.464;2023-05-29T07:32:45;20.90;66.70
65044;DHT22;51617;48.158;16.464;2023-05-29T07:35:11;20.90;66.20
65044;DHT22;51617;48.158;16.464;2023-05-29T07:37:37;21.00;66.20
65044;DHT22;51617;48.158;16.464;2023-05-29T07:40:04;21.00;65.30
65044;DHT22;51617;48.158;16.464;2023-05-29T07:42:31;21.10;66.10
65044;DHT22;51617;48.158;16.464;2023-05-29T07:44:57;21.10;66.10
65044;DHT22;51617;48.158;16.464;2023-05-29T07:47:23;21.20;64.70
65044;DHT22;51617;48.158;16.464;2023-05-29T07:49:49;21.20;65.40
65044;DHT22;51617;48.158;16.464;2023-05-29T07:52:14;21.20;64.90
65044;DHT22;51617;48.158;16.464;2023-05-29T07:54:40;21.30;65.80
65044;DHT22;51617;48.158;16.464;2023-05-29T07:57:06;21.20;65.20
65044;DHT22;51617;48.158;16.464;2023-05-29T07:59:40;21.10;65.40
65044;DHT22;51617;48.158;16.464;2023-05-29T08:02:07;21.20;65.40
65044;DHT22;51617;48.158;16.464;2023-05-29T08:04:33;21.30;66.20
65044;DHT22;51617;48.158;16.464;2023-05-29T08:07:00;21.30;65.50
65044;DHT22;51617;48.158;16.464;2023-05-29T08:09:26;21.30;65.00
65044;DHT22;51617;48.158;16.464;2023-05-29T08:11:52;21.30;65.80
65044;DHT22;51617;48.158;16.464;2023-05-29T08:14:17;21.40;65.80
65044;DHT22;51617;48.158;16.464;2023-05-29T08:16:43;21.50;65.50
65044;DHT22;51617;48.158;16.464;2023-05-29T08:19:08;21.70;65.20
65044;DHT22;51617;48.158;16.464;2023-05-29T08:21:34;21.90;64.00
65044;DHT22;51617;48.158;16.464;2023-05-29T08:24:02;21.90;63.80
65044;DHT22;51617;48.158;16.464;2023-05-29T08:26:30;21.80;63.90
65044;DHT22;51617;48.158;16.464;2023-05-29T08:28:55;21.70;64.50
65044;DHT22;51617;48.158;16.464;2023-05-29T08:31:22;21.70;65.00
65044;DHT22;51617;48.158;16.464;2023-05-29T08:33:50;21.70;64.60
65044;DHT22;51617;48.158;16.464;2023-05-29T08:36:15;21.80;64.70
65044;DHT22;51617;48.158;16.464;2023-05-29T08:38:41;21.80;64.80
65044;DHT22;51617;48.158;16.464;2023-05-29T08:41:08;21.90;64.80
65044;DHT22;51617;48.158;16.464;2023-05-29T08:43:37;22.00;64.70
65044;DHT22;51617;48.158;16.464;2023-05-29T08:46:05;22.10;64.40
65044;DHT22;51617;48.158;16.464;2023-05-29T08:48:31;22.10;64.80
65044;DHT22;51617;48.158;16.464;2023-05-29T08:50:58;22.00;65.30
65044;DHT22;51617;48.158;16.464;2023-05-29T08:53:26;22.10;64.80
65044;DHT22;51617;48.158;16.464;2023-05-29T08:55:53;22.00;64.90
65044;DHT22;51617;48.158;16.464;2023-05-29T08:58:21;21.90;65.20
65044;DHT22;51617;48.158;16.464;2023-05-29T09:00:48;22.00;65.50
65044;DHT22;51617;48.158;16.464;2023-05-29T09:03:15;22.10;66.10
65044;DHT22;51617;48.158;16.464;2023-05-29T09:05:41;22.20;66.20
65044;DHT22;51617;48.158;16.464;2023-05-29T09:08:11;22.30;65.80
65044;DHT22;51617;48.158;16.464;2023-05-29T09:10:44;22.30;65.00
65044;DHT22;51617;48.158;16.464;2023-05-29T09:13:11;22.20;65.30
65044;DHT22;51617;48.158;16.464;2023-05-29T09:15:40;22.20;65.80
65044;DHT22;51617;48.158;16.464;2023-05-29T09:18:08;22.30;66.70
65044;DHT22;51617;48.158;16.464;2023-05-29T09:20:34;22.40;66.10
65044;DHT22;51617;48.158;16.464;2023-05-29T09:23:01;22.40;66.60
65044;DHT22;51617;48.158;16.464;2023-05-29T09:25:28;22.40;65.80
65044;DHT22;51617;48.158;16.464;2023-05-29T09:28:07;22.40;65.90
65044;DHT22;51617;48.158;16.464;2023-05-29T09:30:40;22.50;66.10
65044;DHT22;51617;48.158;16.464;2023-05-29T09:33:08;22.60;65.80
65044;DHT22;51617;48.158;16.464;2023-05-29T09:35:41;22.50;66.80
65044;DHT22;51617;48.158;16.464;2023-05-29T09:38:08;22.40;66.20
65044;DHT22;51617;48.158;16.464;2023-05-29T09:40:38;22.50;65.90
65044;DHT22;51617;48.158;16.464;2023-05-29T09:43:18;22.70;66.40
65044;DHT22;51617;48.158;16.464;2023-05-29T09:45:49;22.70;65.50
65044;DHT22;51617;48.158;16.464;2023-05-29T09:48:22;22.90;65.50
65044;DHT22;51617;48.158;16.464;2023-05-29T09:50:48;22.90;65.80
65044;DHT22;51617;48.158;16.464;2023-05-29T09:53:21;23.00;65.00
65044;DHT22;51617;48.158;16.464;2023-05-29T09:55:48;23.10;64.20
65044;DHT22;51617;48.158;16.464;2023-05-29T09:58:15;23.10;64.40
65044;DHT22;51617;48.158;16.464;2023-05-29T10:00:43;23.10;64.50
65044;DHT22;51617;48.158;16.464;2023-05-29T10:03:12;23.20;64.50
65044;DHT22;51617;48.158;16.464;2023-05-29T10:05:49;23.20;64.20
65044;DHT22;51617;48.158;16.464;2023-05-29T10:08:15;23.20;64.50
65044;DHT22;51617;48.158;16.464;2023-05-29T10:10:45;23.20;64.50
65044;DHT22;51617;48.158;16.464;2023-05-29T10:13:13;23.20;64.90
65044;DHT22;51617;48.158;16.464;2023-05-29T10:15:46;23.20;64.30
65044;DHT22;51617;48.158;16.464;2023-05-29T10:18:29;23.20;64.20
65044;DHT22;51617;48.158;16.464;2023-05-29T10:20:57;23.30;63.50
65044;DHT22;51617;48.158;16.464;2023-05-29T10:23:25;23.50;63.60
65044;DHT22;51617;48.158;16.464;2023-05-29T10:25:58;23.60;63.80
65044;DHT22;51617;48.158;16.464;2023-05-29T10:28:30;23.70;62.60
65044;DHT22;51617;48.158;16.464;2023-05-29T10:31:08;23.90;62.10
65044;DHT22;51617;48.158;16.464;2023-05-29T10:36:35;24.10;60.40
65044;DHT22;51617;48.158;16.464;2023-05-29T10:39:04;24.20;58.40
65044;DHT22;51617;48.158;16.464;2023-05-29T10:41:30;24.20;56.90
65044;DHT22;51617;48.158;16.464;2023-05-29T10:43:59;24.40;57.20
65044;DHT22;51617;48.158;16.464;2023-05-29T10:49:20;24.40;54.70
65044;DHT22;51617;48.158;16.464;2023-05-29T10:51:46;24.40;55.60
65044;DHT22;51617;48.158;16.464;2023-05-29T10:54:12;24.70;56.40
65044;DHT22;51617;48.158;16.464;2023-05-29T10:56:39;24.80;55.50
65044;DHT22;51617;48.158;16.464;2023-05-29T10:59:07;24.90;54.70
65044;DHT22;51617;48.158;16.464;2023-05-29T11:01:33;24.90;54.80
65044;DHT22;51617;48.158;16.464;2023-05-29T11:06:42;25.20;54.60
65044;DHT22;51617;48.158;16.464;2023-05-29T11:09:28;25.20;54.60
65044;DHT22;51617;48.158;16.464;2023-05-29T11:12:23;25.30;54.00
65044;DHT22;51617;48.158;16.464;2023-05-29T11:15:05;25.30;55.00
65044;DHT22;51617;48.158;16.464;2023-05-29T11:20:06;25.40;54.80
65044;DHT22;51617;48.158;16.464;2023-05-29T11:25:26;25.40;54.00
65044;DHT22;51617;48.158;16.464;2023-05-29T11:27:52;25.50;53.90
65044;DHT22;51617;48.158;16.464;2023-05-29T11:30:19;25.40;53.40
65044;DHT22;51617;48.158;16.464;2023-05-29T11:32:45;25.40;53.80
65044;DHT22;51617;48.158;16.464;2023-05-29T11:35:12;25.30;53.10
65044;DHT22;51617;48.158;16.464;2023-05-29T11:37:43;25.40;53.10
65044;DHT22;51617;48.158;16.464;2023-05-29T11:40:11;25.40;52.50
65044;DHT22;51617;48.158;16.464;2023-05-29T11:42:42;25.40;53.60
65044;DHT22;51617;48.158;16.464;2023-05-29T11:50:22;25.70;52.50
65044;DHT22;51617;48.158;16.464;2023-05-29T11:52:48;25.60;52.10
65044;DHT22;51617;48.158;16.464;2023-05-29T11:55:14;25.50;51.90
65044;DHT22;51617;48.158;16.464;2023-05-29T11:57:39;25.60;51.50
65044;DHT22;51617;48.158;16.464;2023-05-29T12:00:07;25.80;51.80
65044;DHT22;51617;48.158;16.464;2023-05-29T12:02:36;25.80;52.60
65044;DHT22;51617;48.158;16.464;2023-05-29T12:05:03;25.80;53.30
65044;DHT22;51617;48.158;16.464;2023-05-29T12:07:29;25.90;53.30
65044;DHT22;51617;48.158;16.464;2023-05-29T12:09:55;26.00;52.70
65044;DHT22;51617;48.158;16.464;2023-05-29T12:12:23;26.10;52.70
65044;DHT22;51617;48.158;16.464;2023-05-29T12:14:52;26.30;52.90
65044;DHT22;51617;48.158;16.464;2023-05-29T12:17:19;26.40;52.00
65044;DHT22;51617;48.158;16.464;2023-05-29T12:19:44;26.30;51.90
65044;DHT22;51617;48.158;16.464;2023-05-29T12:22:10;26.30;51.60
65044;DHT22;51617;48.158;16.464;2023-05-29T12:24:36;26.20;51.80
65044;DHT22;51617;48.158;16.464;2023-05-29T12:27:05;26.20;51.60
65044;DHT22;51617;48.158;16.464;2023-05-29T12:29:36;26.40;51.40
65044;DHT22;51617;48.158;16.464;2023-05-29T12:32:01;26.50;52.00
65044;DHT22;51617;48.158;16.464;2023-05-29T12:34:34;26.70;53.00
65044;DHT22;51617;48.158;16.464;2023-05-29T12:37:09;26.90;52.30
65044;DHT22;51617;48.158;16.464;2023-05-29T12:39:35;26.90;51.90
65044;DHT22;51617;48.158;16.464;2023-05-29T12:42:01;26.70;52.10
65044;DHT22;51617;48.158;16.464;2023-05-29T12:44:27;26.70;50.90
65044;DHT22;51617;48.158;16.464;2023-05-29T12:46:56;26.80;50.30
65044;DHT22;51617;48.158;16.464;2023-05-29T12:49:21;26.60;50.20
65044;DHT22;51617;48.158;16.464;2023-05-29T12:51:51;26.60;51.10
65044;DHT22;51617;48.158;16.464;2023-05-29T12:54:17;26.60;50.30
65044;DHT22;51617;48.158;16.464;2023-05-29T12:56:43;26.80;51.10
65044;DHT22;51617;48.158;16.464;2023-05-29T12:59:11;26.90;49.80
65044;DHT22;51617;48.158;16.464;2023-05-29T13:01:37;26.80;49.40
65044;DHT22;51617;48.158;16.464;2023-05-29T13:04:05;26.80;49.20
65044;DHT22;51617;48.158;16.464;2023-05-29T13:06:35;26.90;49.90
65044;DHT22;51617;48.158;16.464;2023-05-29T13:09:01;27.00;49.40
65044;DHT22;51617;48.158;16.464;2023-05-29T13:11:27;27.10;50.10
65044;DHT22;51617;48.158;16.464;2023-05-29T13:13:52;27.10;48.90
65044;DHT22;51617;48.158;16.464;2023-05-29T13:16:18;27.00;49.20
65044;DHT22;51617;48.158;16.464;2023-05-29T13:18:44;27.10;49.40
65044;DHT22;51617;48.158;16.464;2023-05-29T13:21:09;27.20;49.10
65044;DHT22;51617;48.158;16.464;2023-05-29T13:23:36;27.30;47.40
65044;DHT22;51617;48.158;16.464;2023-05-29T13:26:03;27.10;48.00
65044;DHT22;51617;48.158;16.464;2023-05-29T13:28:29;27.10;48.10
65044;DHT22;51617;48.158;16.464;2023-05-29T13:30:54;27.30;47.60
65044;DHT22;51617;48.158;16.464;2023-05-29T13:33:20;27.20;47.50
65044;DHT22;51617;48.158;16.464;2023-05-29T13:35:46;27.20;48.10
65044;DHT22;51617;48.158;16.464;2023-05-29T13:38:11;27.10;48.30
65044;DHT22;51617;48.158;16.464;2023-05-29T13:40:37;27.20;48.70
65044;DHT22;51617;48.158;16.464;2023-05-29T13:43:03;27.30;47.70
65044;DHT22;51617;48.158;16.464;2023-05-29T13:45:28;27.50;48.30
65044;DHT22;51617;48.158;16.464;2023-05-29T13:47:55;27.40;46.40
65044;DHT22;51617;48.158;16.464;2023-05-29T13:50:20;27.30;46.80
65044;DHT22;51617;48.158;16.464;2023-05-29T13:52:48;27.40;46.70
65044;DHT22;51617;48.158;16.464;2023-05-29T13:55:14;27.50;47.00
65044;DHT22;51617;48.158;16.464;2023-05-29T13:57:40;27.60;47.00
65044;DHT22;51617;48.158;16.464;2023-05-29T14:00:07;27.70;46.60
65044;DHT22;51617;48.158;16.464;2023-05-29T14:02:33;27.80;45.30
65044;DHT22;51617;48.158;16.464;2023-05-29T14:04:58;27.80;45.20
65044;DHT22;51617;48.158;16.464;2023-05-29T14:07:24;27.80;44.60
65044;DHT22;51617;48.158;16.464;2023-05-29T14:09:50;28.00;44.90
65044;DHT22;51617;48.158;16.464;2023-05-29T14:12:16;28.20;43.90
65044;DHT22;51617;48.158;16.464;2023-05-29T14:14:42;28.40;43.70
65044;DHT22;51617;48.158;16.464;2023-05-29T14:17:08;28.40;42.50
65044;DHT22;51617;48.158;16.464;2023-05-29T14:19:34;28.50;41.70
65044;DHT22;51617;48.158;16.464;2023-05-29T14:22:00;28.60;40.80
65044;DHT22;51617;48.158;16.464;2023-05-29T14:24:27;28.70;41.70
65044;DHT22;51617;48.158;16.464;2023-05-29T14:26:52;28.60;41.70
65044;DHT22;51617;48.158;16.464;2023-05-29T14:29:18;28.70;40.80
65044;DHT22;51617;48.158;16.464;2023-05-29T14:31:44;28.90;41.20
65044;DHT22;51617;48.158;16.464;2023-05-29T14:34:10;29.20;41.50
65044;DHT22;51617;48.158;16.464;2023-05-29T14:36:36;29.70;41.10
65044;DHT22;51617;48.158;16.464;2023-05-29T14:39:03;30.20;40.70
65044;DHT22;51617;48.158;16.464;2023-05-29T14:41:29;31.10;39.80
65044;DHT22;51617;48.158;16.464;2023-05-29T14:43:54;31.90;38.60
65044;DHT22;51617;48.158;16.464;2023-05-29T14:46:26;32.40;38.50
65044;DHT22;51617;48.158;16.464;2023-05-29T14:48:54;33.00;37.00
65044;DHT22;51617;48.158;16.464;2023-05-29T14:51:20;33.60;36.40
65044;DHT22;51617;48.158;16.464;2023-05-29T14:53:46;34.00;35.50
65044;DHT22;51617;48.158;16.464;2023-05-29T14:56:11;34.30;35.40
65044;DHT22;51617;48.158;16.464;2023-05-29T14:58:37;34.60;35.80
65044;DHT22;51617;48.158;16.464;2023-05-29T15:01:03;34.40;36.00
65044;DHT22;51617;48.158;16.464;2023-05-29T15:03:28;34.70;35.80
65044;DHT22;51617;48.158;16.464;2023-05-29T15:05:54;34.80;35.60
65044;DHT22;51617;48.158;16.464;2023-05-29T15:08:20;35.10;35.70
65044;DHT22;51617;48.158;16.464;2023-05-29T15:10:46;35.30;35.50
65044;DHT22;51617;48.158;16.464;2023-05-29T15:13:11;35.70;36.20
65044;DHT22;51617;48.158;16.464;2023-05-29T15:15:37;35.70;35.30
65044;DHT22;51617;48.158;16.464;2023-05-29T15:18:03;35.50;35.90
65044;DHT22;51617;48.158;16.464;2023-05-29T15:20:28;35.90;35.40
65044;DHT22;51617;48.158;16.464;2023-05-29T15:22:54;36.10;35.10
65044;DHT22;51617;48.158;16.464;2023-05-29T15:25:21;36.50;35.20
65044;DHT22;51617;48.158;16.464;2023-05-29T15:27:48;36.10;35.10
65044;DHT22;51617;48.158;16.464;2023-05-29T15:30:14;36.50;34.90
65044;DHT22;51617;48.158;16.464;2023-05-29T15:32:41;36.20;34.80
65044;DHT22;51617;48.158;16.464;2023-05-29T15:35:08;36.00;35.40